sensor_id;sensor_type;location;lat;lon;timestamp;P1;durP1;ratioP1;P2;durP2;ratioP2
3085;SDS011;52812;48.960;9.108;2023-11-21T00:01:17;3.60;;;1.80;;
3085;SDS011;52812;48.960;9.108;2023-11-21T00:03:42;3.40;;;1.97;;
3085;SDS011;52812;48.960;9.108;2023-11-21T00:06:09;5.30;;;2.00;;
3085;SDS011;52812;48.960;9.108;2023-11-21T00:08:35;4.93;;;2.40;;
3085;SDS011;52812;48.960;9.108;2023-11-21T00:11:01;2.50;;;1.70;;
3085;SDS011;52812;48.960;9.108;2023-11-21T00:13:26;2.87;;;1.77;;
3085;SDS011;52812;48.960;9.108;2023-11-21T00:15:52;1.50;;;1.40;;
3085;SDS011;52812;48.960;9.108;2023-11-21T00:18:18;2.73;;;1.50;;
3085;SDS011;52812;48.960;9.108;2023-11-21T00:20:47;2.27;;;1.47;;
3085;SDS011;52812;48.960;9.108;2023-11-21T00:23:13;3.63;;;1.80;;
3085;SDS011;52812;48.960;9.108;2023-11-21T00:25:38;1.97;;;1.77;;
3085;SDS011;52812;48.960;9.108;2023-11-21T00:28:05;1.87;;;1.50;;
3085;SDS011;52812;48.960;9.108;2023-11-21T00:30:31;1.87;;;1.40;;
3085;SDS011;52812;48.960;9.108;2023-11-21T00:32:56;2.70;;;1.73;;
3085;SDS011;52812;48.960;9.108;2023-11-21T00:35:22;2.40;;;1.80;;
3085;SDS011;52812;48.960;9.108;2023-11-21T00:37:48;2.40;;;1.83;;
3085;SDS011;52812;48.960;9.108;2023-11-21T00:40:14;2.53;;;1.47;;
3085;SDS011;52812;48.960;9.108;2023-11-21T00:42:40;1.57;;;1.47;;
3085;SDS011;52812;48.960;9.108;2023-11-21T00:45:07;3.50;;;1.53;;
3085;SDS011;52812;48.960;9.108;2023-11-21T00:47:33;2.30;;;1.70;;
3085;SDS011;52812;48.960;9.108;2023-11-21T00:49:58;4.30;;;1.60;;
3085;SDS011;52812;48.960;9.108;2023-11-21T00:52:24;2.00;;;1.57;;
3085;SDS011;52812;48.960;9.108;2023-11-21T00:54:50;2.67;;;1.63;;
3085;SDS011;52812;48.960;9.108;2023-11-21T00:57:15;2.80;;;1.90;;
3085;SDS011;52812;48.960;9.108;2023-11-21T00:59:41;2.80;;;1.80;;
3085;SDS011;52812;48.960;9.108;2023-11-21T01:02:07;4.50;;;1.53;;
3085;SDS011;52812;48.960;9.108;2023-11-21T01:04:35;2.77;;;1.73;;
3085;SDS011;52812;48.960;9.108;2023-11-21T01:07:01;1.97;;;1.60;;
3085;SDS011;52812;48.960;9.108;2023-11-21T01:09:26;2.00;;;1.80;;
3085;SDS011;52812;48.960;9.108;2023-11-21T01:11:53;2.47;;;1.80;;
3085;SDS011;52812;48.960;9.108;2023-11-21T01:14:18;2.50;;;1.70;;
3085;SDS011;52812;48.960;9.108;2023-11-21T01:16:44;3.43;;;1.67;;
3085;SDS011;52812;48.960;9.108;2023-11-21T01:19:10;2.23;;;1.60;;
3085;SDS011;52812;48.960;9.108;2023-11-21T01:21:35;2.53;;;1.70;;
3085;SDS011;52812;48.960;9.108;2023-11-21T01:24:01;3.27;;;2.00;;
3085;SDS011;52812;48.960;9.108;2023-11-21T01:26:27;1.87;;;1.47;;
3085;SDS011;52812;48.960;9.108;2023-11-21T01:28:53;7.13;;;2.00;;
3085;SDS011;52812;48.960;9.108;2023-11-21T01:31:19;5.10;;;2.30;;
3085;SDS011;52812;48.960;9.108;2023-11-21T01:33:45;2.73;;;1.73;;
3085;SDS011;52812;48.960;9.108;2023-11-21T01:36:11;2.73;;;1.70;;
3085;SDS011;52812;48.960;9.108;2023-11-21T01:38:37;1.77;;;1.67;;
3085;SDS011;52812;48.960;9.108;2023-11-21T01:41:02;2.80;;;1.67;;
3085;SDS011;52812;48.960;9.108;2023-11-21T01:43:28;2.30;;;1.60;;
3085;SDS011;52812;48.960;9.108;2023-11-21T01:45:57;3.10;;;1.60;;
3085;SDS011;52812;48.960;9.108;2023-11-21T01:48:23;4.23;;;1.90;;
3085;SDS011;52812;48.960;9.108;2023-11-21T01:50:49;2.53;;;1.70;;
3085;SDS011;52812;48.960;9.108;2023-11-21T01:53:16;1.93;;;1.60;;
3085;SDS011;52812;48.960;9.108;2023-11-21T01:55:41;4.17;;;1.70;;
3085;SDS011;52812;48.960;9.108;2023-11-21T01:58:09;2.30;;;1.53;;
3085;SDS011;52812;48.960;9.108;2023-11-21T02:00:36;3.53;;;1.80;;
3085;SDS011;52812;48.960;9.108;2023-11-21T02:03:03;2.03;;;1.53;;
3085;SDS011;52812;48.960;9.108;2023-11-21T02:05:29;2.67;;;1.50;;
3085;SDS011;52812;48.960;9.108;2023-11-21T02:07:55;2.40;;;1.53;;
3085;SDS011;52812;48.960;9.108;2023-11-21T02:10:21;3.30;;;1.70;;
3085;SDS011;52812;48.960;9.108;2023-11-21T02:12:51;3.20;;;1.67;;
3085;SDS011;52812;48.960;9.108;2023-11-21T02:15:17;2.53;;;1.80;;
3085;SDS011;52812;48.960;9.108;2023-11-21T02:17:46;3.73;;;1.63;;
3085;SDS011;52812;48.960;9.108;2023-11-21T02:20:15;1.93;;;1.70;;
3085;SDS011;52812;48.960;9.108;2023-11-21T02:22:43;3.23;;;1.87;;
3085;SDS011;52812;48.960;9.108;2023-11-21T02:25:13;3.37;;;1.60;;
3085;SDS011;52812;48.960;9.108;2023-11-21T02:27:42;5.80;;;3.30;;
3085;SDS011;52812;48.960;9.108;2023-11-21T02:30:08;2.70;;;1.90;;
3085;SDS011;52812;48.960;9.108;2023-11-21T02:32:38;2.27;;;1.70;;
3085;SDS011;52812;48.960;9.108;2023-11-21T02:35:05;2.37;;;1.80;;
3085;SDS011;52812;48.960;9.108;2023-11-21T02:37:33;2.67;;;2.00;;
3085;SDS011;52812;48.960;9.108;2023-11-21T02:39:58;2.90;;;1.63;;
3085;SDS011;52812;48.960;9.108;2023-11-21T02:42:24;1.90;;;1.80;;
3085;SDS011;52812;48.960;9.108;2023-11-21T02:44:50;2.97;;;2.30;;
3085;SDS011;52812;48.960;9.108;2023-11-21T02:47:15;5.20;;;2.13;;
3085;SDS011;52812;48.960;9.108;2023-11-21T02:49:41;3.00;;;2.00;;
3085;SDS011;52812;48.960;9.108;2023-11-21T02:52:07;2.90;;;2.00;;
3085;SDS011;52812;48.960;9.108;2023-11-21T02:54:33;3.10;;;1.80;;
3085;SDS011;52812;48.960;9.108;2023-11-21T02:57:01;3.17;;;1.90;;
3085;SDS011;52812;48.960;9.108;2023-11-21T02:59:27;2.97;;;2.60;;
3085;SDS011;52812;48.960;9.108;2023-11-21T03:01:53;2.73;;;1.53;;
3085;SDS011;52812;48.960;9.108;2023-11-21T03:04:18;3.40;;;1.70;;
3085;SDS011;52812;48.960;9.108;2023-11-21T03:06:44;2.80;;;1.90;;
3085;SDS011;52812;48.960;9.108;2023-11-21T03:09:10;1.50;;;1.40;;
3085;SDS011;52812;48.960;9.108;2023-11-21T03:11:39;2.80;;;1.73;;
3085;SDS011;52812;48.960;9.108;2023-11-21T03:14:04;2.63;;;2.03;;
3085;SDS011;52812;48.960;9.108;2023-11-21T03:16:31;2.90;;;1.80;;
3085;SDS011;52812;48.960;9.108;2023-11-21T03:18:57;6.53;;;2.00;;
3085;SDS011;52812;48.960;9.108;2023-11-21T03:21:23;3.00;;;2.00;;
3085;SDS011;52812;48.960;9.108;2023-11-21T03:23:49;2.20;;;1.70;;
3085;SDS011;52812;48.960;9.108;2023-11-21T03:26:15;3.33;;;2.00;;
3085;SDS011;52812;48.960;9.108;2023-11-21T03:28:41;4.50;;;1.73;;
3085;SDS011;52812;48.960;9.108;2023-11-21T03:31:07;2.20;;;1.83;;
3085;SDS011;52812;48.960;9.108;2023-11-21T03:33:34;2.50;;;1.80;;
3085;SDS011;52812;48.960;9.108;2023-11-21T03:36:00;1.90;;;1.70;;
3085;SDS011;52812;48.960;9.108;2023-11-21T03:38:26;3.13;;;1.70;;
3085;SDS011;52812;48.960;9.108;2023-11-21T03:40:52;4.43;;;1.70;;
3085;SDS011;52812;48.960;9.108;2023-11-21T03:43:18;2.80;;;1.67;;
3085;SDS011;52812;48.960;9.108;2023-11-21T03:45:44;4.10;;;1.80;;
3085;SDS011;52812;48.960;9.108;2023-11-21T03:48:09;3.23;;;2.00;;
3085;SDS011;52812;48.960;9.108;2023-11-21T03:50:37;3.00;;;2.10;;
3085;SDS011;52812;48.960;9.108;2023-11-21T03:53:03;2.50;;;1.90;;
3085;SDS011;52812;48.960;9.108;2023-11-21T03:55:29;2.53;;;1.87;;
3085;SDS011;52812;48.960;9.108;2023-11-21T03:57:56;4.00;;;1.90;;
3085;SDS011;52812;48.960;9.108;2023-11-21T04:00:22;2.57;;;1.90;;
3085;SDS011;52812;48.960;9.108;2023-11-21T04:02:48;2.50;;;1.90;;
3085;SDS011;52812;48.960;9.108;2023-11-21T04:05:16;4.00;;;1.80;;
3085;SDS011;52812;48.960;9.108;2023-11-21T04:07:42;2.00;;;1.80;;
3085;SDS011;52812;48.960;9.108;2023-11-21T04:10:08;3.33;;;2.00;;
3085;SDS011;52812;48.960;9.108;2023-11-21T04:12:34;3.07;;;1.97;;
3085;SDS011;52812;48.960;9.108;2023-11-21T04:15:00;3.10;;;2.00;;
3085;SDS011;52812;48.960;9.108;2023-11-21T04:17:26;3.83;;;1.90;;
3085;SDS011;52812;48.960;9.108;2023-11-21T04:19:52;5.77;;;2.23;;
3085;SDS011;52812;48.960;9.108;2023-11-21T04:22:17;3.03;;;2.00;;
3085;SDS011;52812;48.960;9.108;2023-11-21T04:24:43;4.20;;;1.90;;
3085;SDS011;52812;48.960;9.108;2023-11-21T04:27:08;2.90;;;1.90;;
3085;SDS011;52812;48.960;9.108;2023-11-21T04:29:34;3.00;;;2.00;;
3085;SDS011;52812;48.960;9.108;2023-11-21T04:32:00;3.00;;;1.80;;
3085;SDS011;52812;48.960;9.108;2023-11-21T04:34:27;3.67;;;1.90;;
3085;SDS011;52812;48.960;9.108;2023-11-21T04:36:55;2.93;;;1.93;;
3085;SDS011;52812;48.960;9.108;2023-11-21T04:39:22;3.53;;;2.00;;
3085;SDS011;52812;48.960;9.108;2023-11-21T04:41:47;8.47;;;2.87;;
3085;SDS011;52812;48.960;9.108;2023-11-21T04:44:13;4.23;;;2.20;;
3085;SDS011;52812;48.960;9.108;2023-11-21T04:46:38;2.73;;;1.80;;
3085;SDS011;52812;48.960;9.108;2023-11-21T04:49:04;2.87;;;2.13;;
3085;SDS011;52812;48.960;9.108;2023-11-21T04:51:30;2.13;;;1.93;;
3085;SDS011;52812;48.960;9.108;2023-11-21T04:53:57;3.90;;;2.10;;
3085;SDS011;52812;48.960;9.108;2023-11-21T04:56:23;3.37;;;2.10;;
3085;SDS011;52812;48.960;9.108;2023-11-21T04:58:48;2.77;;;2.10;;
3085;SDS011;52812;48.960;9.108;2023-11-21T05:01:14;3.40;;;2.07;;
3085;SDS011;52812;48.960;9.108;2023-11-21T05:03:39;3.93;;;2.00;;
3085;SDS011;52812;48.960;9.108;2023-11-21T05:06:06;2.10;;;1.73;;
3085;SDS011;52812;48.960;9.108;2023-11-21T05:08:31;2.83;;;1.87;;
3085;SDS011;52812;48.960;9.108;2023-11-21T05:10:57;3.10;;;2.00;;
3085;SDS011;52812;48.960;9.108;2023-11-21T05:13:23;3.10;;;2.00;;
3085;SDS011;52812;48.960;9.108;2023-11-21T05:15:52;1.93;;;1.70;;
3085;SDS011;52812;48.960;9.108;2023-11-21T05:18:24;1.73;;;1.60;;
3085;SDS011;52812;48.960;9.108;2023-11-21T05:20:52;3.97;;;2.30;;
3085;SDS011;52812;48.960;9.108;2023-11-21T05:23:18;3.67;;;2.20;;
3085;SDS011;52812;48.960;9.108;2023-11-21T05:25:44;3.20;;;2.30;;
3085;SDS011;52812;48.960;9.108;2023-11-21T05:28:11;2.90;;;2.00;;
3085;SDS011;52812;48.960;9.108;2023-11-21T05:30:37;2.80;;;2.20;;
3085;SDS011;52812;48.960;9.108;2023-11-21T05:33:04;2.60;;;2.40;;
3085;SDS011;52812;48.960;9.108;2023-11-21T05:35:30;2.97;;;2.20;;
3085;SDS011;52812;48.960;9.108;2023-11-21T05:37:56;2.77;;;2.27;;
3085;SDS011;52812;48.960;9.108;2023-11-21T05:40:22;3.20;;;2.50;;
3085;SDS011;52812;48.960;9.108;2023-11-21T05:42:48;3.50;;;1.90;;
3085;SDS011;52812;48.960;9.108;2023-11-21T05:45:14;4.13;;;2.50;;
3085;SDS011;52812;48.960;9.108;2023-11-21T05:47:44;2.90;;;2.33;;
3085;SDS011;52812;48.960;9.108;2023-11-21T05:50:11;3.50;;;2.43;;
3085;SDS011;52812;48.960;9.108;2023-11-21T05:52:40;2.50;;;2.27;;
3085;SDS011;52812;48.960;9.108;2023-11-21T05:55:06;2.40;;;2.20;;
3085;SDS011;52812;48.960;9.108;2023-11-21T05:57:36;4.80;;;2.20;;
3085;SDS011;52812;48.960;9.108;2023-11-21T06:00:07;5.10;;;2.23;;
3085;SDS011;52812;48.960;9.108;2023-11-21T06:02:40;3.90;;;2.20;;
3085;SDS011;52812;48.960;9.108;2023-11-21T06:05:06;2.13;;;1.93;;
3085;SDS011;52812;48.960;9.108;2023-11-21T06:07:33;3.53;;;1.90;;
3085;SDS011;52812;48.960;9.108;2023-11-21T06:09:59;3.57;;;2.23;;
3085;SDS011;52812;48.960;9.108;2023-11-21T06:12:24;3.13;;;2.10;;
3085;SDS011;52812;48.960;9.108;2023-11-21T06:14:50;2.40;;;2.20;;
3085;SDS011;52812;48.960;9.108;2023-11-21T06:17:16;5.10;;;2.20;;
3085;SDS011;52812;48.960;9.108;2023-11-21T06:19:42;4.20;;;2.37;;
3085;SDS011;52812;48.960;9.108;2023-11-21T06:22:10;4.17;;;2.33;;
3085;SDS011;52812;48.960;9.108;2023-11-21T06:24:36;3.43;;;2.30;;
3085;SDS011;52812;48.960;9.108;2023-11-21T06:27:03;2.67;;;2.40;;
3085;SDS011;52812;48.960;9.108;2023-11-21T06:29:30;4.13;;;2.20;;
3085;SDS011;52812;48.960;9.108;2023-11-21T06:31:56;2.57;;;2.20;;
3085;SDS011;52812;48.960;9.108;2023-11-21T06:34:23;3.30;;;2.40;;
3085;SDS011;52812;48.960;9.108;2023-11-21T06:36:49;19.10;;;11.53;;
3085;SDS011;52812;48.960;9.108;2023-11-21T06:39:14;8.23;;;5.63;;
3085;SDS011;52812;48.960;9.108;2023-11-21T06:41:42;5.70;;;4.30;;
3085;SDS011;52812;48.960;9.108;2023-11-21T06:44:08;5.43;;;3.10;;
3085;SDS011;52812;48.960;9.108;2023-11-21T06:46:33;5.20;;;3.13;;
3085;SDS011;52812;48.960;9.108;2023-11-21T06:48:59;3.97;;;2.60;;
3085;SDS011;52812;48.960;9.108;2023-11-21T06:51:25;3.30;;;2.23;;
3085;SDS011;52812;48.960;9.108;2023-11-21T06:53:50;2.47;;;2.27;;
3085;SDS011;52812;48.960;9.108;2023-11-21T06:56:19;3.13;;;2.40;;
3085;SDS011;52812;48.960;9.108;2023-11-21T06:58:45;2.73;;;2.30;;
3085;SDS011;52812;48.960;9.108;2023-11-21T07:01:12;3.40;;;2.37;;
3085;SDS011;52812;48.960;9.108;2023-11-21T07:03:38;4.90;;;2.80;;
3085;SDS011;52812;48.960;9.108;2023-11-21T07:06:04;3.50;;;2.07;;
3085;SDS011;52812;48.960;9.108;2023-11-21T07:08:30;2.93;;;2.60;;
3085;SDS011;52812;48.960;9.108;2023-11-21T07:10:56;4.50;;;2.27;;
3085;SDS011;52812;48.960;9.108;2023-11-21T07:13:22;3.90;;;2.47;;
3085;SDS011;52812;48.960;9.108;2023-11-21T07:15:48;3.30;;;2.40;;
3085;SDS011;52812;48.960;9.108;2023-11-21T07:18:14;4.10;;;2.60;;
3085;SDS011;52812;48.960;9.108;2023-11-21T07:20:39;4.43;;;3.00;;
3085;SDS011;52812;48.960;9.108;2023-11-21T07:23:05;4.40;;;3.00;;
3085;SDS011;52812;48.960;9.108;2023-11-21T07:25:31;3.60;;;2.63;;
3085;SDS011;52812;48.960;9.108;2023-11-21T07:27:58;3.50;;;2.80;;
3085;SDS011;52812;48.960;9.108;2023-11-21T07:30:24;3.40;;;2.50;;
3085;SDS011;52812;48.960;9.108;2023-11-21T07:32:50;7.47;;;2.90;;
3085;SDS011;52812;48.960;9.108;2023-11-21T07:35:16;2.63;;;2.30;;
3085;SDS011;52812;48.960;9.108;2023-11-21T07:37:41;3.87;;;2.53;;
3085;SDS011;52812;48.960;9.108;2023-11-21T07:40:08;3.97;;;2.70;;
3085;SDS011;52812;48.960;9.108;2023-11-21T07:42:34;3.10;;;2.80;;
3085;SDS011;52812;48.960;9.108;2023-11-21T07:45:00;3.80;;;3.17;;
3085;SDS011;52812;48.960;9.108;2023-11-21T07:47:25;4.30;;;2.97;;
3085;SDS011;52812;48.960;9.108;2023-11-21T07:49:52;2.87;;;2.50;;
3085;SDS011;52812;48.960;9.108;2023-11-21T07:52:20;3.07;;;2.43;;
3085;SDS011;52812;48.960;9.108;2023-11-21T07:54:47;4.90;;;2.20;;
3085;SDS011;52812;48.960;9.108;2023-11-21T07:57:12;4.07;;;2.50;;
3085;SDS011;52812;48.960;9.108;2023-11-21T07:59:39;4.37;;;2.30;;
3085;SDS011;52812;48.960;9.108;2023-11-21T08:02:06;2.73;;;2.43;;
3085;SDS011;52812;48.960;9.108;2023-11-21T08:04:32;7.00;;;2.60;;
3085;SDS011;52812;48.960;9.108;2023-11-21T08:07:01;5.87;;;2.70;;
3085;SDS011;52812;48.960;9.108;2023-11-21T08:09:28;3.20;;;2.90;;
3085;SDS011;52812;48.960;9.108;2023-11-21T08:11:54;6.10;;;3.50;;
3085;SDS011;52812;48.960;9.108;2023-11-21T08:14:21;4.60;;;3.27;;
3085;SDS011;52812;48.960;9.108;2023-11-21T08:16:47;3.63;;;3.10;;
3085;SDS011;52812;48.960;9.108;2023-11-21T08:19:13;3.07;;;2.73;;
3085;SDS011;52812;48.960;9.108;2023-11-21T08:21:38;4.27;;;3.20;;
3085;SDS011;52812;48.960;9.108;2023-11-21T08:24:08;4.20;;;2.77;;
3085;SDS011;52812;48.960;9.108;2023-11-21T08:26:36;3.27;;;2.97;;
3085;SDS011;52812;48.960;9.108;2023-11-21T08:29:02;3.07;;;2.50;;
3085;SDS011;52812;48.960;9.108;2023-11-21T08:31:27;2.67;;;2.40;;
3085;SDS011;52812;48.960;9.108;2023-11-21T08:33:54;4.17;;;3.37;;
3085;SDS011;52812;48.960;9.108;2023-11-21T08:36:23;3.87;;;2.77;;
3085;SDS011;52812;48.960;9.108;2023-11-21T08:38:51;4.50;;;3.00;;
3085;SDS011;52812;48.960;9.108;2023-11-21T08:41:17;4.20;;;2.70;;
3085;SDS011;52812;48.960;9.108;2023-11-21T08:43:47;3.87;;;3.00;;
3085;SDS011;52812;48.960;9.108;2023-11-21T08:46:13;3.17;;;2.60;;
3085;SDS011;52812;48.960;9.108;2023-11-21T08:48:40;4.57;;;3.07;;
3085;SDS011;52812;48.960;9.108;2023-11-21T08:51:06;4.20;;;3.07;;
3085;SDS011;52812;48.960;9.108;2023-11-21T08:53:32;3.73;;;3.10;;
3085;SDS011;52812;48.960;9.108;2023-11-21T08:55:58;3.70;;;2.87;;
3085;SDS011;52812;48.960;9.108;2023-11-21T08:58:23;4.10;;;3.03;;
3085;SDS011;52812;48.960;9.108;2023-11-21T09:00:49;4.10;;;3.27;;
3085;SDS011;52812;48.960;9.108;2023-11-21T09:03:15;3.47;;;2.73;;
3085;SDS011;52812;48.960;9.108;2023-11-21T09:05:40;4.40;;;3.50;;
3085;SDS011;52812;48.960;9.108;2023-11-21T09:08:06;9.43;;;3.70;;
3085;SDS011;52812;48.960;9.108;2023-11-21T09:10:34;3.83;;;3.20;;
3085;SDS011;52812;48.960;9.108;2023-11-21T09:13:04;4.47;;;3.33;;
3085;SDS011;52812;48.960;9.108;2023-11-21T09:15:30;2.53;;;2.27;;
3085;SDS011;52812;48.960;9.108;2023-11-21T09:17:55;2.30;;;1.87;;
3085;SDS011;52812;48.960;9.108;2023-11-21T09:20:21;2.00;;;1.90;;
3085;SDS011;52812;48.960;9.108;2023-11-21T09:22:51;1.83;;;1.57;;
3085;SDS011;52812;48.960;9.108;2023-11-21T09:25:16;2.10;;;1.90;;
3085;SDS011;52812;48.960;9.108;2023-11-21T09:27:44;2.00;;;1.60;;
3085;SDS011;52812;48.960;9.108;2023-11-21T09:30:11;3.43;;;1.70;;
3085;SDS011;52812;48.960;9.108;2023-11-21T09:32:39;2.80;;;1.60;;
3085;SDS011;52812;48.960;9.108;2023-11-21T09:35:05;2.63;;;1.97;;
3085;SDS011;52812;48.960;9.108;2023-11-21T09:37:33;4.20;;;2.23;;
3085;SDS011;52812;48.960;9.108;2023-11-21T09:39:59;2.60;;;2.40;;
3085;SDS011;52812;48.960;9.108;2023-11-21T09:42:38;4.47;;;2.50;;
3085;SDS011;52812;48.960;9.108;2023-11-21T09:47:42;2.77;;;2.40;;
3085;SDS011;52812;48.960;9.108;2023-11-21T09:50:09;3.93;;;3.53;;
3085;SDS011;52812;48.960;9.108;2023-11-21T09:55:26;2.70;;;2.50;;
3085;SDS011;52812;48.960;9.108;2023-11-21T09:57:55;2.53;;;2.33;;
3085;SDS011;52812;48.960;9.108;2023-11-21T10:00:22;3.37;;;2.40;;
3085;SDS011;52812;48.960;9.108;2023-11-21T10:02:49;4.90;;;3.90;;
3085;SDS011;52812;48.960;9.108;2023-11-21T10:05:15;4.67;;;3.60;;
3085;SDS011;52812;48.960;9.108;2023-11-21T10:07:43;4.50;;;2.67;;
3085;SDS011;52812;48.960;9.108;2023-11-21T10:10:13;2.80;;;2.50;;
3085;SDS011;52812;48.960;9.108;2023-11-21T10:12:41;2.80;;;2.50;;
3085;SDS011;52812;48.960;9.108;2023-11-21T10:15:09;3.00;;;2.70;;
3085;SDS011;52812;48.960;9.108;2023-11-21T10:17:40;2.80;;;2.60;;
3085;SDS011;52812;48.960;9.108;2023-11-21T10:20:13;2.60;;;2.40;;
3085;SDS011;52812;48.960;9.108;2023-11-21T10:22:42;4.00;;;2.50;;
3085;SDS011;52812;48.960;9.108;2023-11-21T10:25:12;3.20;;;2.87;;
3085;SDS011;52812;48.960;9.108;2023-11-21T10:27:41;2.57;;;2.37;;
3085;SDS011;52812;48.960;9.108;2023-11-21T10:30:08;3.03;;;2.67;;
3085;SDS011;52812;48.960;9.108;2023-11-21T10:32:38;3.83;;;2.90;;
3085;SDS011;52812;48.960;9.108;2023-11-21T10:35:06;3.13;;;2.83;;
3085;SDS011;52812;48.960;9.108;2023-11-21T10:37:35;4.17;;;3.37;;
3085;SDS011;52812;48.960;9.108;2023-11-21T10:40:05;3.63;;;3.20;;
3085;SDS011;52812;48.960;9.108;2023-11-21T10:42:40;5.03;;;3.50;;
3085;SDS011;52812;48.960;9.108;2023-11-21T10:45:07;3.77;;;3.10;;
3085;SDS011;52812;48.960;9.108;2023-11-21T10:47:43;3.50;;;3.20;;
3085;SDS011;52812;48.960;9.108;2023-11-21T10:50:09;3.10;;;2.80;;
3085;SDS011;52812;48.960;9.108;2023-11-21T10:52:39;6.07;;;3.00;;
3085;SDS011;52812;48.960;9.108;2023-11-21T10:55:17;2.60;;;2.40;;
3085;SDS011;52812;48.960;9.108;2023-11-21T10:57:46;2.83;;;2.50;;
3085;SDS011;52812;48.960;9.108;2023-11-21T11:00:14;6.73;;;2.60;;
3085;SDS011;52812;48.960;9.108;2023-11-21T11:02:44;3.10;;;2.50;;
3085;SDS011;52812;48.960;9.108;2023-11-21T11:05:12;3.60;;;3.03;;
3085;SDS011;52812;48.960;9.108;2023-11-21T11:07:40;3.50;;;2.90;;
3085;SDS011;52812;48.960;9.108;2023-11-21T11:10:08;3.90;;;2.80;;
3085;SDS011;52812;48.960;9.108;2023-11-21T11:12:39;3.77;;;3.23;;
3085;SDS011;52812;48.960;9.108;2023-11-21T11:15:07;4.10;;;3.50;;
3085;SDS011;52812;48.960;9.108;2023-11-21T11:17:35;3.60;;;3.10;;
3085;SDS011;52812;48.960;9.108;2023-11-21T11:20:04;4.90;;;3.63;;
3085;SDS011;52812;48.960;9.108;2023-11-21T11:22:41;3.87;;;3.20;;
3085;SDS011;52812;48.960;9.108;2023-11-21T11:28:17;3.83;;;3.27;;
3085;SDS011;52812;48.960;9.108;2023-11-21T11:33:50;2.80;;;2.60;;
3085;SDS011;52812;48.960;9.108;2023-11-21T11:37:21;3.37;;;2.33;;
3085;SDS011;52812;48.960;9.108;2023-11-21T11:39:29;2.83;;;2.57;;
3085;SDS011;52812;48.960;9.108;2023-11-21T11:41:56;3.30;;;3.00;;
3085;SDS011;52812;48.960;9.108;2023-11-21T11:52:53;2.60;;;2.40;;
3085;SDS011;52812;48.960;9.108;2023-11-21T11:55:22;2.93;;;2.63;;
3085;SDS011;52812;48.960;9.108;2023-11-21T11:57:51;2.90;;;2.57;;
3085;SDS011;52812;48.960;9.108;2023-11-21T12:00:21;2.50;;;2.30;;
3085;SDS011;52812;48.960;9.108;2023-11-21T12:02:55;3.37;;;3.07;;
3085;SDS011;52812;48.960;9.108;2023-11-21T12:05:28;3.97;;;2.93;;
3085;SDS011;52812;48.960;9.108;2023-11-21T12:08:03;3.07;;;2.77;;
3085;SDS011;52812;48.960;9.108;2023-11-21T12:10:30;2.30;;;2.10;;
3085;SDS011;52812;48.960;9.108;2023-11-21T12:13:05;2.63;;;2.17;;
3085;SDS011;52812;48.960;9.108;2023-11-21T12:15:33;2.83;;;2.40;;
3085;SDS011;52812;48.960;9.108;2023-11-21T12:18:00;2.40;;;2.20;;
3085;SDS011;52812;48.960;9.108;2023-11-21T12:20:26;2.10;;;1.90;;
3085;SDS011;52812;48.960;9.108;2023-11-21T12:22:53;2.07;;;1.87;;
3085;SDS011;52812;48.960;9.108;2023-11-21T12:25:21;2.03;;;1.83;;
3085;SDS011;52812;48.960;9.108;2023-11-21T12:27:54;2.10;;;1.90;;
3085;SDS011;52812;48.960;9.108;2023-11-21T12:30:22;2.00;;;1.80;;
3085;SDS011;52812;48.960;9.108;2023-11-21T12:32:52;1.63;;;1.53;;
3085;SDS011;52812;48.960;9.108;2023-11-21T12:35:22;1.70;;;1.60;;
3085;SDS011;52812;48.960;9.108;2023-11-21T12:37:51;2.00;;;1.80;;
3085;SDS011;52812;48.960;9.108;2023-11-21T12:40:18;2.07;;;1.90;;
3085;SDS011;52812;48.960;9.108;2023-11-21T12:42:45;1.90;;;1.63;;
3085;SDS011;52812;48.960;9.108;2023-11-21T12:47:54;3.67;;;2.20;;
3085;SDS011;52812;48.960;9.108;2023-11-21T12:50:28;1.80;;;1.70;;
3085;SDS011;52812;48.960;9.108;2023-11-21T12:53:06;3.63;;;2.20;;
3085;SDS011;52812;48.960;9.108;2023-11-21T12:55:33;1.60;;;1.50;;
3085;SDS011;52812;48.960;9.108;2023-11-21T12:58:03;6.10;;;1.87;;
3085;SDS011;52812;48.960;9.108;2023-11-21T13:00:47;2.10;;;1.70;;
3085;SDS011;52812;48.960;9.108;2023-11-21T13:03:14;2.20;;;1.90;;
3085;SDS011;52812;48.960;9.108;2023-11-21T13:05:42;2.10;;;1.87;;
3085;SDS011;52812;48.960;9.108;2023-11-21T13:08:10;2.23;;;1.70;;
3085;SDS011;52812;48.960;9.108;2023-11-21T13:10:43;2.57;;;1.80;;
3085;SDS011;52812;48.960;9.108;2023-11-21T13:13:12;1.87;;;1.70;;
3085;SDS011;52812;48.960;9.108;2023-11-21T13:18:21;1.77;;;1.53;;
3085;SDS011;52812;48.960;9.108;2023-11-21T13:20:52;1.80;;;1.50;;
3085;SDS011;52812;48.960;9.108;2023-11-21T13:23:21;1.63;;;1.43;;
3085;SDS011;52812;48.960;9.108;2023-11-21T13:25:48;4.57;;;1.90;;
3085;SDS011;52812;48.960;9.108;2023-11-21T13:28:15;4.30;;;2.00;;
3085;SDS011;52812;48.960;9.108;2023-11-21T13:30:43;1.80;;;1.60;;
3085;SDS011;52812;48.960;9.108;2023-11-21T13:33:09;1.60;;;1.50;;
3085;SDS011;52812;48.960;9.108;2023-11-21T13:35:42;3.83;;;1.80;;
3085;SDS011;52812;48.960;9.108;2023-11-21T13:38:14;1.87;;;1.70;;
3085;SDS011;52812;48.960;9.108;2023-11-21T13:40:48;1.90;;;1.60;;
3085;SDS011;52812;48.960;9.108;2023-11-21T13:43:18;1.77;;;1.60;;
3085;SDS011;52812;48.960;9.108;2023-11-21T13:45:49;3.33;;;1.57;;
3085;SDS011;52812;48.960;9.108;2023-11-21T13:48:26;2.50;;;1.60;;
3085;SDS011;52812;48.960;9.108;2023-11-21T13:51:05;2.23;;;1.80;;
3085;SDS011;52812;48.960;9.108;2023-11-21T13:53:45;3.60;;;3.30;;
3085;SDS011;52812;48.960;9.108;2023-11-21T13:56:14;1.80;;;1.50;;
3085;SDS011;52812;48.960;9.108;2023-11-21T13:58:48;1.63;;;1.43;;
3085;SDS011;52812;48.960;9.108;2023-11-21T14:01:19;1.50;;;1.40;;
3085;SDS011;52812;48.960;9.108;2023-11-21T14:04:17;2.50;;;1.60;;
3085;SDS011;52812;48.960;9.108;2023-11-21T14:06:42;3.70;;;1.80;;
3085;SDS011;52812;48.960;9.108;2023-11-21T14:09:16;2.67;;;1.90;;
3085;SDS011;52812;48.960;9.108;2023-11-21T14:12:00;2.13;;;1.40;;
3085;SDS011;52812;48.960;9.108;2023-11-21T14:14:31;1.87;;;1.73;;
3085;SDS011;52812;48.960;9.108;2023-11-21T14:16:57;2.30;;;1.70;;
3085;SDS011;52812;48.960;9.108;2023-11-21T14:19:23;1.67;;;1.57;;
3085;SDS011;52812;48.960;9.108;2023-11-21T14:21:53;1.90;;;1.70;;
3085;SDS011;52812;48.960;9.108;2023-11-21T14:24:19;1.87;;;1.60;;
3085;SDS011;52812;48.960;9.108;2023-11-21T14:26:45;2.20;;;1.93;;
3085;SDS011;52812;48.960;9.108;2023-11-21T14:29:12;3.10;;;1.90;;
3085;SDS011;52812;48.960;9.108;2023-11-21T14:31:41;2.67;;;2.13;;
3085;SDS011;52812;48.960;9.108;2023-11-21T14:34:07;3.50;;;2.60;;
3085;SDS011;52812;48.960;9.108;2023-11-21T14:36:36;4.17;;;2.90;;
3085;SDS011;52812;48.960;9.108;2023-11-21T14:39:03;3.10;;;2.53;;
3085;SDS011;52812;48.960;9.108;2023-11-21T14:41:46;4.17;;;2.97;;
3085;SDS011;52812;48.960;9.108;2023-11-21T14:44:12;6.10;;;2.90;;
3085;SDS011;52812;48.960;9.108;2023-11-21T14:46:39;3.30;;;3.00;;
3085;SDS011;52812;48.960;9.108;2023-11-21T14:49:08;4.10;;;3.30;;
3085;SDS011;52812;48.960;9.108;2023-11-21T14:51:52;3.87;;;3.13;;
3085;SDS011;52812;48.960;9.108;2023-11-21T14:54:29;4.87;;;3.50;;
3085;SDS011;52812;48.960;9.108;2023-11-21T14:57:14;4.33;;;3.27;;
3085;SDS011;52812;48.960;9.108;2023-11-21T14:59:48;4.47;;;3.30;;
3085;SDS011;52812;48.960;9.108;2023-11-21T15:02:17;3.40;;;3.10;;
3085;SDS011;52812;48.960;9.108;2023-11-21T15:04:50;4.77;;;3.50;;
3085;SDS011;52812;48.960;9.108;2023-11-21T15:07:26;4.97;;;3.73;;
3085;SDS011;52812;48.960;9.108;2023-11-21T15:09:52;4.70;;;3.80;;
3085;SDS011;52812;48.960;9.108;2023-11-21T15:12:18;6.03;;;3.80;;
3085;SDS011;52812;48.960;9.108;2023-11-21T15:14:47;5.83;;;3.90;;
3085;SDS011;52812;48.960;9.108;2023-11-21T15:17:18;5.93;;;4.20;;
3085;SDS011;52812;48.960;9.108;2023-11-21T15:19:55;6.57;;;4.73;;
3085;SDS011;52812;48.960;9.108;2023-11-21T15:22:21;5.60;;;4.20;;
3085;SDS011;52812;48.960;9.108;2023-11-21T15:24:47;9.23;;;4.37;;
3085;SDS011;52812;48.960;9.108;2023-11-21T15:27:14;5.97;;;4.33;;
3085;SDS011;52812;48.960;9.108;2023-11-21T15:29:41;6.57;;;4.70;;